sensor_id;sensor_type;location;lat;lon;timestamp;pressure;altitude;pressure_sealevel;temperature;humidity
69247;BME280;56358;56.328;43.992;2024-01-10T00:01:35;100020.75;;;-13.19;71.96
69247;BME280;56358;56.328;43.992;2024-01-10T00:03:36;99916.94;;;-13.80;72.07
69247;BME280;56358;56.328;43.992;2024-01-10T00:05:36;100014.66;;;-13.24;72.22
69247;BME280;56358;56.328;43.992;2024-01-10T00:07:37;100023.31;;;-13.20;72.32
69247;BME280;56358;56.328;43.992;2024-01-10T00:09:38;99968.03;;;-13.45;72.31
69247;BME280;56358;56.328;43.992;2024-01-10T00:11:38;99991.25;;;-13.42;72.36
69247;BME280;56358;56.328;43.992;2024-01-10T00:13:39;99931.59;;;-13.75;72.30
69247;BME280;56358;56.328;43.992;2024-01-10T00:15:40;100025.78;;;-13.31;72.55
69247;BME280;56358;56.328;43.992;2024-01-10T00:17:40;100011.16;;;-13.29;72.46
69247;BME280;56358;56.328;43.992;2024-01-10T00:19:41;99982.56;;;-13.52;72.40
69247;BME280;56358;56.328;43.992;2024-01-10T00:21:42;99992.94;;;-13.46;72.36
69247;BME280;56358;56.328;43.992;2024-01-10T00:23:43;100032.59;;;-13.33;72.60
69247;BME280;56358;56.328;43.992;2024-01-10T00:25:43;100027.44;;;-13.38;72.30
69247;BME280;56358;56.328;43.992;2024-01-10T00:27:44;99849.16;;;-14.44;72.24
69247;BME280;56358;56.328;43.992;2024-01-10T00:29:44;100024.75;;;-13.47;72.10
69247;BME280;56358;56.328;43.992;2024-01-10T00:31:45;100019.50;;;-13.55;72.15
69247;BME280;56358;56.328;43.992;2024-01-10T00:33:46;100026.41;;;-13.52;72.40
69247;BME280;56358;56.328;43.992;2024-01-10T00:35:46;100048.63;;;-13.62;72.52
69247;BME280;56358;56.328;43.992;2024-01-10T00:37:47;99977.78;;;-13.90;72.53
69247;BME280;56358;56.328;43.992;2024-01-10T00:39:48;100024.50;;;-13.67;72.63
69247;BME280;56358;56.328;43.992;2024-01-10T00:41:49;100028.78;;;-13.68;72.40
69247;BME280;56358;56.328;43.992;2024-01-10T00:43:49;100022.69;;;-13.73;72.71
69247;BME280;56358;56.328;43.992;2024-01-10T00:45:50;100014.00;;;-13.81;72.53
69247;BME280;56358;56.328;43.992;2024-01-10T00:47:51;99925.69;;;-14.34;72.39
69247;BME280;56358;56.328;43.992;2024-01-10T00:49:52;100045.88;;;-13.74;72.28
69247;BME280;56358;56.328;43.992;2024-01-10T00:51:52;100034.56;;;-13.86;72.43
69247;BME280;56358;56.328;43.992;2024-01-10T00:53:53;99989.41;;;-14.20;72.65
69247;BME280;56358;56.328;43.992;2024-01-10T00:55:54;99958.38;;;-14.29;72.54
69247;BME280;56358;56.328;43.992;2024-01-10T00:57:54;100030.09;;;-13.97;72.67
69247;BME280;56358;56.328;43.992;2024-01-10T00:59:55;100029.19;;;-14.00;72.63
69247;BME280;56358;56.328;43.992;2024-01-10T01:01:55;100033.50;;;-14.00;72.61
69247;BME280;56358;56.328;43.992;2024-01-10T01:03:56;100010.84;;;-14.21;72.60
69247;BME280;56358;56.328;43.992;2024-01-10T01:05:57;100029.78;;;-14.19;72.78
69247;BME280;56358;56.328;43.992;2024-01-10T01:07:57;100033.28;;;-14.16;72.65
69247;BME280;56358;56.328;43.992;2024-01-10T01:09:58;100018.53;;;-14.24;72.84
69247;BME280;56358;56.328;43.992;2024-01-10T01:11:59;100028.88;;;-14.23;72.79
69247;BME280;56358;56.328;43.992;2024-01-10T01:13:59;100016.66;;;-14.35;72.89
69247;BME280;56358;56.328;43.992;2024-01-10T01:16:00;100016.59;;;-14.41;72.76
69247;BME280;56358;56.328;43.992;2024-01-10T01:18:01;100014.09;;;-14.35;72.96
69247;BME280;56358;56.328;43.992;2024-01-10T01:20:01;100000.22;;;-14.43;73.01
69247;BME280;56358;56.328;43.992;2024-01-10T01:22:05;100010.50;;;-14.46;72.87
69247;BME280;56358;56.328;43.992;2024-01-10T01:24:05;100004.34;;;-14.56;72.86
69247;BME280;56358;56.328;43.992;2024-01-10T01:26:06;99994.03;;;-14.56;72.88
69247;BME280;56358;56.328;43.992;2024-01-10T01:28:07;100007.75;;;-14.57;73.03
69247;BME280;56358;56.328;43.992;2024-01-10T01:30:08;99962.06;;;-14.72;72.69
69247;BME280;56358;56.328;43.992;2024-01-10T01:32:11;99990.59;;;-14.55;72.95
69247;BME280;56358;56.328;43.992;2024-01-10T01:34:12;99969.00;;;-14.68;73.04
69247;BME280;56358;56.328;43.992;2024-01-10T01:36:13;99958.63;;;-14.71;73.15
69247;BME280;56358;56.328;43.992;2024-01-10T01:38:13;99988.03;;;-14.53;73.11
69247;BME280;56358;56.328;43.992;2024-01-10T01:40:14;99964.69;;;-14.67;73.03
69247;BME280;56358;56.328;43.992;2024-01-10T01:42:15;99987.13;;;-14.58;72.63
69247;BME280;56358;56.328;43.992;2024-01-10T01:44:16;99950.75;;;-14.80;72.68
69247;BME280;56358;56.328;43.992;2024-01-10T01:46:17;99989.63;;;-14.61;72.73
69247;BME280;56358;56.328;43.992;2024-01-10T01:48:22;99991.28;;;-14.67;72.59
69247;BME280;56358;56.328;43.992;2024-01-10T01:50:22;99980.16;;;-14.65;72.57
69247;BME280;56358;56.328;43.992;2024-01-10T01:52:24;99976.69;;;-14.69;72.62
69247;BME280;56358;56.328;43.992;2024-01-10T01:54:25;99977.50;;;-14.72;72.52
69247;BME280;56358;56.328;43.992;2024-01-10T01:56:26;99979.16;;;-14.75;72.42
69247;BME280;56358;56.328;43.992;2024-01-10T01:58:27;99989.44;;;-14.77;72.45
69247;BME280;56358;56.328;43.992;2024-01-10T02:00:28;99990.06;;;-14.90;72.33
69247;BME280;56358;56.328;43.992;2024-01-10T02:02:30;99988.19;;;-14.99;72.04
69247;BME280;56358;56.328;43.992;2024-01-10T02:04:32;99983.19;;;-14.90;72.40
69247;BME280;56358;56.328;43.992;2024-01-10T02:06:34;99995.91;;;-14.99;72.21
69247;BME280;56358;56.328;43.992;2024-01-10T02:08:35;100026.78;;;-14.99;72.23
69247;BME280;56358;56.328;43.992;2024-01-10T02:10:36;99998.34;;;-15.07;72.32
69247;BME280;56358;56.328;43.992;2024-01-10T02:12:36;99997.56;;;-15.03;72.43
69247;BME280;56358;56.328;43.992;2024-01-10T02:14:37;99993.84;;;-15.19;72.35
69247;BME280;56358;56.328;43.992;2024-01-10T02:16:38;100029.19;;;-15.07;72.25
69247;BME280;56358;56.328;43.992;2024-01-10T02:18:39;100024.03;;;-15.08;72.30
69247;BME280;56358;56.328;43.992;2024-01-10T02:20:44;100022.25;;;-15.11;72.50
69247;BME280;56358;56.328;43.992;2024-01-10T02:22:48;100025.78;;;-15.07;72.74
69247;BME280;56358;56.328;43.992;2024-01-10T02:24:53;99997.09;;;-15.27;72.64
69247;BME280;56358;56.328;43.992;2024-01-10T02:26:55;100025.72;;;-15.10;72.49
69247;BME280;56358;56.328;43.992;2024-01-10T02:28:56;99951.03;;;-15.62;72.35
69247;BME280;56358;56.328;43.992;2024-01-10T02:30:57;100035.09;;;-15.12;72.35
69247;BME280;56358;56.328;43.992;2024-01-10T02:32:58;100034.13;;;-15.19;72.42
69247;BME280;56358;56.328;43.992;2024-01-10T02:34:59;100048.69;;;-15.20;72.36
69247;BME280;56358;56.328;43.992;2024-01-10T02:36:59;99936.06;;;-15.85;72.31
69247;BME280;56358;56.328;43.992;2024-01-10T02:39:01;100047.69;;;-15.26;72.23
69247;BME280;56358;56.328;43.992;2024-01-10T02:41:01;100030.38;;;-15.35;72.52
69247;BME280;56358;56.328;43.992;2024-01-10T02:43:03;100048.47;;;-15.30;72.50
69247;BME280;56358;56.328;43.992;2024-01-10T02:45:04;100037.97;;;-15.43;72.12
69247;BME280;56358;56.328;43.992;2024-01-10T02:47:07;99917.31;;;-16.22;72.33
69247;BME280;56358;56.328;43.992;2024-01-10T02:49:07;100055.88;;;-15.46;72.41
69247;BME280;56358;56.328;43.992;2024-01-10T02:51:08;100067.84;;;-15.48;72.32
69247;BME280;56358;56.328;43.992;2024-01-10T02:53:09;99986.41;;;-15.95;72.18
69247;BME280;56358;56.328;43.992;2024-01-10T02:55:09;100099.47;;;-15.51;72.16
69247;BME280;56358;56.328;43.992;2024-01-10T02:57:10;100087.47;;;-15.52;72.06
69247;BME280;56358;56.328;43.992;2024-01-10T02:59:11;100054.78;;;-15.59;72.25
69247;BME280;56358;56.328;43.992;2024-01-10T03:01:14;100052.19;;;-15.59;72.54
69247;BME280;56358;56.328;43.992;2024-01-10T03:03:14;100059.84;;;-15.60;72.24
69247;BME280;56358;56.328;43.992;2024-01-10T03:05:15;100066.69;;;-15.62;72.33
69247;BME280;56358;56.328;43.992;2024-01-10T03:07:16;100057.22;;;-15.63;72.17
69247;BME280;56358;56.328;43.992;2024-01-10T03:09:16;100060.63;;;-15.64;72.36
69247;BME280;56358;56.328;43.992;2024-01-10T03:11:17;100071.66;;;-15.70;72.55
69247;BME280;56358;56.328;43.992;2024-01-10T03:13:18;99975.63;;;-16.16;72.21
69247;BME280;56358;56.328;43.992;2024-01-10T03:15:19;100053.44;;;-15.82;72.38
69247;BME280;56358;56.328;43.992;2024-01-10T03:17:19;100077.72;;;-15.66;72.15
69247;BME280;56358;56.328;43.992;2024-01-10T03:19:20;100078.53;;;-15.69;71.98
69247;BME280;56358;56.328;43.992;2024-01-10T03:21:21;100081.88;;;-15.73;71.69
69247;BME280;56358;56.328;43.992;2024-01-10T03:23:25;100078.41;;;-15.74;71.70
69247;BME280;56358;56.328;43.992;2024-01-10T03:25:27;100065.47;;;-15.80;72.34
69247;BME280;56358;56.328;43.992;2024-01-10T03:27:27;100064.59;;;-15.80;72.12
69247;BME280;56358;56.328;43.992;2024-01-10T03:29:28;100071.41;;;-15.82;72.06
69247;BME280;56358;56.328;43.992;2024-01-10T03:31:29;100039.34;;;-16.00;71.65
69247;BME280;56358;56.328;43.992;2024-01-10T03:33:31;100078.06;;;-15.92;71.83
69247;BME280;56358;56.328;43.992;2024-01-10T03:35:31;100059.78;;;-16.05;71.79
69247;BME280;56358;56.328;43.992;2024-01-10T03:37:32;99989.50;;;-16.46;72.35
69247;BME280;56358;56.328;43.992;2024-01-10T03:39:32;100087.41;;;-15.94;72.32
69247;BME280;56358;56.328;43.992;2024-01-10T03:41:33;100099.53;;;-15.89;72.45
69247;BME280;56358;56.328;43.992;2024-01-10T03:43:34;100066.63;;;-16.05;72.26
69247;BME280;56358;56.328;43.992;2024-01-10T03:45:34;100096.06;;;-15.91;72.40
69247;BME280;56358;56.328;43.992;2024-01-10T03:47:35;100117.47;;;-15.90;72.35
69247;BME280;56358;56.328;43.992;2024-01-10T03:49:36;100099.19;;;-16.04;72.27
69247;BME280;56358;56.328;43.992;2024-01-10T03:51:36;100112.25;;;-15.95;71.84
69247;BME280;56358;56.328;43.992;2024-01-10T03:53:38;99980.34;;;-16.73;71.72
69247;BME280;56358;56.328;43.992;2024-01-10T03:55:38;100114.63;;;-16.03;71.92
69247;BME280;56358;56.328;43.992;2024-01-10T03:57:39;100107.59;;;-16.10;72.16
69247;BME280;56358;56.328;43.992;2024-01-10T03:59:40;100094.50;;;-16.21;72.26
69247;BME280;56358;56.328;43.992;2024-01-10T04:01:40;100080.72;;;-16.26;72.25
69247;BME280;56358;56.328;43.992;2024-01-10T04:03:41;100133.38;;;-16.05;71.86
69247;BME280;56358;56.328;43.992;2024-01-10T04:05:42;100119.63;;;-16.07;71.55
69247;BME280;56358;56.328;43.992;2024-01-10T04:07:43;99982.63;;;-16.84;71.51
69247;BME280;56358;56.328;43.992;2024-01-10T04:09:44;100114.63;;;-16.03;71.32
69247;BME280;56358;56.328;43.992;2024-01-10T04:11:45;100123.22;;;-16.00;71.27
69247;BME280;56358;56.328;43.992;2024-01-10T04:13:45;100148.84;;;-16.04;70.99
69247;BME280;56358;56.328;43.992;2024-01-10T04:15:47;100122.38;;;-15.99;71.39
69247;BME280;56358;56.328;43.992;2024-01-10T04:17:47;100012.09;;;-16.68;71.24
69247;BME280;56358;56.328;43.992;2024-01-10T04:19:48;100124.91;;;-16.03;71.54
69247;BME280;56358;56.328;43.992;2024-01-10T04:21:48;100062.25;;;-16.46;72.02
69247;BME280;56358;56.328;43.992;2024-01-10T04:23:49;100111.78;;;-16.15;71.37
69247;BME280;56358;56.328;43.992;2024-01-10T04:25:52;100134.25;;;-16.05;71.29
69247;BME280;56358;56.328;43.992;2024-01-10T04:27:52;100133.22;;;-16.11;71.75
69247;BME280;56358;56.328;43.992;2024-01-10T04:29:53;100143.41;;;-16.16;71.85
69247;BME280;56358;56.328;43.992;2024-01-10T04:31:54;100111.28;;;-16.35;71.99
69247;BME280;56358;56.328;43.992;2024-01-10T04:33:55;100137.28;;;-16.21;71.60
69247;BME280;56358;56.328;43.992;2024-01-10T04:35:56;100043.47;;;-16.78;71.30
69247;BME280;56358;56.328;43.992;2024-01-10T04:37:56;100130.97;;;-16.34;70.76
69247;BME280;56358;56.328;43.992;2024-01-10T04:39:57;100031.03;;;-16.99;70.50
69247;BME280;56358;56.328;43.992;2024-01-10T04:41:57;100165.94;;;-16.39;70.90
69247;BME280;56358;56.328;43.992;2024-01-10T04:43:58;100148.81;;;-16.39;70.91
69247;BME280;56358;56.328;43.992;2024-01-10T04:45:59;100147.56;;;-16.55;70.57
69247;BME280;56358;56.328;43.992;2024-01-10T04:48:00;100153.81;;;-16.43;70.39
69247;BME280;56358;56.328;43.992;2024-01-10T04:50:00;100142.41;;;-16.56;70.32
69247;BME280;56358;56.328;43.992;2024-01-10T04:52:01;100157.78;;;-16.56;70.16
69247;BME280;56358;56.328;43.992;2024-01-10T04:54:02;100110.13;;;-16.80;70.26
69247;BME280;56358;56.328;43.992;2024-01-10T04:56:03;100173.91;;;-16.62;69.99
69247;BME280;56358;56.328;43.992;2024-01-10T04:58:04;100179.72;;;-16.67;71.42
69247;BME280;56358;56.328;43.992;2024-01-10T05:00:05;100171.69;;;-16.80;71.11
69247;BME280;56358;56.328;43.992;2024-01-10T05:02:07;100163.19;;;-17.09;71.60
69247;BME280;56358;56.328;43.992;2024-01-10T05:04:08;100171.06;;;-17.03;72.08
69247;BME280;56358;56.328;43.992;2024-01-10T05:06:08;100189.38;;;-16.91;72.49
69247;BME280;56358;56.328;43.992;2024-01-10T05:08:09;100182.34;;;-16.98;72.34
69247;BME280;56358;56.328;43.992;2024-01-10T05:10:10;100200.13;;;-17.02;72.73
69247;BME280;56358;56.328;43.992;2024-01-10T05:12:11;100201.09;;;-16.99;72.90
69247;BME280;56358;56.328;43.992;2024-01-10T05:14:11;100191.31;;;-17.12;73.31
69247;BME280;56358;56.328;43.992;2024-01-10T05:16:12;100201.84;;;-17.03;73.14
69247;BME280;56358;56.328;43.992;2024-01-10T05:18:13;100189.56;;;-17.13;73.15
69247;BME280;56358;56.328;43.992;2024-01-10T05:20:13;100199.00;;;-17.12;73.06
69247;BME280;56358;56.328;43.992;2024-01-10T05:22:14;100130.59;;;-17.44;72.73
69247;BME280;56358;56.328;43.992;2024-01-10T05:24:15;100212.97;;;-17.02;72.66
69247;BME280;56358;56.328;43.992;2024-01-10T05:26:15;100238.63;;;-17.01;72.65
69247;BME280;56358;56.328;43.992;2024-01-10T05:28:16;100214.66;;;-17.03;72.27
69247;BME280;56358;56.328;43.992;2024-01-10T05:30:17;100040.56;;;-18.17;71.93
69247;BME280;56358;56.328;43.992;2024-01-10T05:32:17;100243.25;;;-17.19;71.92
69247;BME280;56358;56.328;43.992;2024-01-10T05:34:18;100216.59;;;-17.25;72.06
69247;BME280;56358;56.328;43.992;2024-01-10T05:36:22;100213.88;;;-17.29;71.21
69247;BME280;56358;56.328;43.992;2024-01-10T05:38:23;100230.03;;;-17.32;71.04
69247;BME280;56358;56.328;43.992;2024-01-10T05:40:24;100208.38;;;-17.42;71.46
69247;BME280;56358;56.328;43.992;2024-01-10T05:42:25;100206.41;;;-17.50;71.49
69247;BME280;56358;56.328;43.992;2024-01-10T05:44:26;100223.22;;;-17.31;71.13
69247;BME280;56358;56.328;43.992;2024-01-10T05:46:27;100230.81;;;-17.34;71.11
69247;BME280;56358;56.328;43.992;2024-01-10T05:48:28;100138.66;;;-17.89;71.28
69247;BME280;56358;56.328;43.992;2024-01-10T05:50:29;99934.56;;;-19.09;70.97
69247;BME280;56358;56.328;43.992;2024-01-10T05:52:30;100116.97;;;-18.00;71.33
69247;BME280;56358;56.328;43.992;2024-01-10T05:54:31;100246.38;;;-17.28;71.15
69247;BME280;56358;56.328;43.992;2024-01-10T05:56:32;100248.91;;;-17.30;71.18
69247;BME280;56358;56.328;43.992;2024-01-10T05:58:32;100240.16;;;-17.37;71.20
69247;BME280;56358;56.328;43.992;2024-01-10T06:00:33;100244.69;;;-17.28;71.14
69247;BME280;56358;56.328;43.992;2024-01-10T06:02:34;100220.13;;;-17.48;71.06
69247;BME280;56358;56.328;43.992;2024-01-10T06:04:34;100262.50;;;-17.32;71.02
69247;BME280;56358;56.328;43.992;2024-01-10T06:06:35;100250.94;;;-17.47;71.15
69247;BME280;56358;56.328;43.992;2024-01-10T06:08:36;100189.25;;;-17.80;71.41
69247;BME280;56358;56.328;43.992;2024-01-10T06:10:36;100246.06;;;-17.39;71.62
69247;BME280;56358;56.328;43.992;2024-01-10T06:12:37;100257.69;;;-17.22;71.69
69247;BME280;56358;56.328;43.992;2024-01-10T06:14:38;100259.69;;;-17.13;71.25
69247;BME280;56358;56.328;43.992;2024-01-10T06:16:39;100256.28;;;-17.12;70.91
69247;BME280;56358;56.328;43.992;2024-01-10T06:18:40;100238.13;;;-17.19;69.81
69247;BME280;56358;56.328;43.992;2024-01-10T06:20:40;100221.53;;;-17.31;69.88
69247;BME280;56358;56.328;43.992;2024-01-10T06:22:41;100264.66;;;-17.17;70.18
69247;BME280;56358;56.328;43.992;2024-01-10T06:24:43;100268.06;;;-16.90;69.90
69247;BME280;56358;56.328;43.992;2024-01-10T06:26:43;100273.91;;;-16.94;69.45
69247;BME280;56358;56.328;43.992;2024-01-10T06:28:44;100255.78;;;-17.00;69.70
69247;BME280;56358;56.328;43.992;2024-01-10T06:30:45;100267.09;;;-16.93;69.67
69247;BME280;56358;56.328;43.992;2024-01-10T06:32:45;100275.75;;;-16.90;69.52
69247;BME280;56358;56.328;43.992;2024-01-10T06:34:46;100274.69;;;-16.96;69.49
69247;BME280;56358;56.328;43.992;2024-01-10T06:36:47;100278.50;;;-16.82;69.59
69247;BME280;56358;56.328;43.992;2024-01-10T06:38:48;100273.97;;;-16.92;69.45
69247;BME280;56358;56.328;43.992;2024-01-10T06:40:48;100235.81;;;-17.10;69.32
69247;BME280;56358;56.328;43.992;2024-01-10T06:42:50;100289.59;;;-16.83;69.29
69247;BME280;56358;56.328;43.992;2024-01-10T06:44:51;100281.66;;;-16.92;69.56
69247;BME280;56358;56.328;43.992;2024-01-10T06:46:52;100291.13;;;-16.88;69.42
69247;BME280;56358;56.328;43.992;2024-01-10T06:48:53;100273.63;;;-17.03;69.09
69247;BME280;56358;56.328;43.992;2024-01-10T06:50:53;100303.94;;;-16.90;69.38
69247;BME280;56358;56.328;43.992;2024-01-10T06:52:54;100307.38;;;-16.89;69.36
69247;BME280;56358;56.328;43.992;2024-01-10T06:54:54;100303.59;;;-17.02;69.17
69247;BME280;56358;56.328;43.992;2024-01-10T06:56:55;100302.63;;;-17.06;69.47
69247;BME280;56358;56.328;43.992;2024-01-10T06:58:56;100316.44;;;-17.00;69.30
69247;BME280;56358;56.328;43.992;2024-01-10T07:00:57;100320.75;;;-16.99;69.58
69247;BME280;56358;56.328;43.992;2024-01-10T07:03:01;100311.03;;;-17.10;69.36
69247;BME280;56358;56.328;43.992;2024-01-10T07:05:06;100324.91;;;-17.03;69.51
69247;BME280;56358;56.328;43.992;2024-01-10T07:07:07;100325.41;;;-17.15;69.58
69247;BME280;56358;56.328;43.992;2024-01-10T07:09:08;100333.50;;;-17.01;70.35
69247;BME280;56358;56.328;43.992;2024-01-10T07:11:09;100221.25;;;-17.67;70.38
69247;BME280;56358;56.328;43.992;2024-01-10T07:13:11;100339.66;;;-16.96;70.28
69247;BME280;56358;56.328;43.992;2024-01-10T07:15:12;100300.53;;;-17.17;70.66
69247;BME280;56358;56.328;43.992;2024-01-10T07:17:13;100282.66;;;-17.43;70.76
69247;BME280;56358;56.328;43.992;2024-01-10T07:19:13;100358.69;;;-16.88;70.10
69247;BME280;56358;56.328;43.992;2024-01-10T07:21:14;100320.81;;;-16.98;69.89
69247;BME280;56358;56.328;43.992;2024-01-10T07:23:15;100337.63;;;-16.77;70.07
69247;BME280;56358;56.328;43.992;2024-01-10T07:25:16;100349.03;;;-16.67;70.21
69247;BME280;56358;56.328;43.992;2024-01-10T07:27:16;100356.09;;;-16.60;70.23
69247;BME280;56358;56.328;43.992;2024-01-10T07:29:19;100362.41;;;-16.49;70.33
69247;BME280;56358;56.328;43.992;2024-01-10T07:31:19;100171.38;;;-17.51;70.21
69247;BME280;56358;56.328;43.992;2024-01-10T07:33:20;100356.19;;;-16.28;70.23
69247;BME280;56358;56.328;43.992;2024-01-10T07:35:21;100334.47;;;-16.38;69.82
69247;BME280;56358;56.328;43.992;2024-01-10T07:37:21;100359.94;;;-16.15;69.80
69247;BME280;56358;56.328;43.992;2024-01-10T07:39:23;100342.41;;;-16.30;69.39
69247;BME280;56358;56.328;43.992;2024-01-10T07:41:23;100358.38;;;-16.10;69.02
69247;BME280;56358;56.328;43.992;2024-01-10T07:43:24;100357.59;;;-16.08;69.28
69247;BME280;56358;56.328;43.992;2024-01-10T07:45:25;100373.88;;;-16.07;69.05
69247;BME280;56358;56.328;43.992;2024-01-10T07:47:26;100341.97;;;-16.15;69.05
69247;BME280;56358;56.328;43.992;2024-01-10T07:49:26;100333.34;;;-16.19;68.82
69247;BME280;56358;56.328;43.992;2024-01-10T07:51:27;100259.38;;;-16.63;68.63
69247;BME280;56358;56.328;43.992;2024-01-10T07:53:28;100368.78;;;-16.06;68.84
69247;BME280;56358;56.328;43.992;2024-01-10T07:55:28;100371.25;;;-16.09;69.07
69247;BME280;56358;56.328;43.992;2024-01-10T07:57:30;100333.41;;;-16.16;69.19
69247;BME280;56358;56.328;43.992;2024-01-10T07:59:31;100369.69;;;-16.04;69.13
69247;BME280;56358;56.328;43.992;2024-01-10T08:01:32;100361.38;;;-15.95;68.96
69247;BME280;56358;56.328;43.992;2024-01-10T08:03:33;100266.84;;;-16.40;68.85
69247;BME280;56358;56.328;43.992;2024-01-10T08:05:36;100358.22;;;-15.85;68.77
69247;BME280;56358;56.328;43.992;2024-01-10T08:07:37;100340.84;;;-15.95;68.69
69247;BME280;56358;56.328;43.992;2024-01-10T08:09:38;100101.16;;;-17.28;68.48
69247;BME280;56358;56.328;43.992;2024-01-10T08:11:39;100349.97;;;-15.71;68.62
69247;BME280;56358;56.328;43.992;2024-01-10T08:13:41;100361.25;;;-15.66;67.81
69247;BME280;56358;56.328;43.992;2024-01-10T08:15:41;100278.03;;;-16.06;67.79
69247;BME280;56358;56.328;43.992;2024-01-10T08:17:42;100369.41;;;-15.49;67.61
69247;BME280;56358;56.328;43.992;2024-01-10T08:19:43;100360.25;;;-15.38;67.71
69247;BME280;56358;56.328;43.992;2024-01-10T08:21:44;100254.69;;;-16.14;67.40
69247;BME280;56358;56.328;43.992;2024-01-10T08:23:44;100357.25;;;-15.21;67.64
69247;BME280;56358;56.328;43.992;2024-01-10T08:25:45;100376.63;;;-14.99;67.11
69247;BME280;56358;56.328;43.992;2024-01-10T08:27:46;100356.94;;;-14.98;66.38
69247;BME280;56358;56.328;43.992;2024-01-10T08:29:47;100332.81;;;-15.04;65.09
69247;BME280;56358;56.328;43.992;2024-01-10T08:31:48;100377.03;;;-14.82;64.58
69247;BME280;56358;56.328;43.992;2024-01-10T08:33:49;100387.34;;;-14.80;64.25
69247;BME280;56358;56.328;43.992;2024-01-10T08:35:50;100384.75;;;-14.82;63.27
69247;BME280;56358;56.328;43.992;2024-01-10T08:37:50;100379.34;;;-14.93;62.25
69247;BME280;56358;56.328;43.992;2024-01-10T08:39:51;100376.81;;;-14.91;62.74
69247;BME280;56358;56.328;43.992;2024-01-10T08:41:52;100386.34;;;-14.87;63.06
69247;BME280;56358;56.328;43.992;2024-01-10T08:43:53;100366.59;;;-14.88;63.25
69247;BME280;56358;56.328;43.992;2024-01-10T08:45:53;100377.88;;;-14.81;63.44
69247;BME280;56358;56.328;43.992;2024-01-10T08:47:54;100389.34;;;-14.69;63.86
69247;BME280;56358;56.328;43.992;2024-01-10T08:49:55;100383.50;;;-14.60;63.91
69247;BME280;56358;56.328;43.992;2024-01-10T08:51:56;100375.84;;;-14.58;63.63
69247;BME280;56358;56.328;43.992;2024-01-10T08:53:57;100384.69;;;-14.45;63.34
69247;BME280;56358;56.328;43.992;2024-01-10T08:55:57;100392.63;;;-14.35;63.66
69247;BME280;56358;56.328;43.992;2024-01-10T08:57:58;100387.59;;;-14.30;62.81
69247;BME280;56358;56.328;43.992;2024-01-10T08:59:59;100403.06;;;-14.30;63.01
69247;BME280;56358;56.328;43.992;2024-01-10T09:02:00;100378.16;;;-14.29;62.32
69247;BME280;56358;56.328;43.992;2024-01-10T09:04:01;100371.31;;;-14.29;62.16
69247;BME280;56358;56.328;43.992;2024-01-10T09:06:01;100394.59;;;-14.24;62.51
69247;BME280;56358;56.328;43.992;2024-01-10T09:08:04;100385.13;;;-14.24;63.25
69247;BME280;56358;56.328;43.992;2024-01-10T09:10:05;100378.41;;;-14.17;62.38
69247;BME280;56358;56.328;43.992;2024-01-10T09:12:08;100396.44;;;-14.17;61.28
69247;BME280;56358;56.328;43.992;2024-01-10T09:14:08;100390.22;;;-14.27;61.82
69247;BME280;56358;56.328;43.992;2024-01-10T09:16:09;100403.88;;;-14.31;61.75
69247;BME280;56358;56.328;43.992;2024-01-10T09:18:10;100311.50;;;-14.96;61.82
69247;BME280;56358;56.328;43.992;2024-01-10T09:20:11;100348.31;;;-14.99;61.98
69247;BME280;56358;56.328;43.992;2024-01-10T09:22:12;100417.63;;;-14.70;62.21
69247;BME280;56358;56.328;43.992;2024-01-10T09:24:14;100406.97;;;-14.86;62.46
69247;BME280;56358;56.328;43.992;2024-01-10T09:26:15;100306.56;;;-15.60;63.09
69247;BME280;56358;56.328;43.992;2024-01-10T09:28:15;100416.81;;;-15.04;63.62
69247;BME280;56358;56.328;43.992;2024-01-10T09:30:16;100383.88;;;-15.18;63.89
69247;BME280;56358;56.328;43.992;2024-01-10T09:32:19;100319.75;;;-15.48;63.80
69247;BME280;56358;56.328;43.992;2024-01-10T09:34:20;100403.34;;;-14.94;63.93
69247;BME280;56358;56.328;43.992;2024-01-10T09:36:21;100417.91;;;-14.94;63.85
69247;BME280;56358;56.328;43.992;2024-01-10T09:38:22;100404.13;;;-14.96;63.77
69247;BME280;56358;56.328;43.992;2024-01-10T09:40:22;100404.91;;;-15.01;63.67
69247;BME280;56358;56.328;43.992;2024-01-10T09:42:26;100399.56;;;-15.08;64.08
69247;BME280;56358;56.328;43.992;2024-01-10T09:44:27;100410.03;;;-15.01;64.48
69247;BME280;56358;56.328;43.992;2024-01-10T09:46:30;100381.03;;;-15.30;63.83
69247;BME280;56358;56.328;43.992;2024-01-10T09:48:34;100398.63;;;-15.12;63.91
69247;BME280;56358;56.328;43.992;2024-01-10T09:50:35;100388.34;;;-15.12;64.01
69247;BME280;56358;56.328;43.992;2024-01-10T09:52:44;100423.13;;;-14.91;64.00
69247;BME280;56358;56.328;43.992;2024-01-10T09:54:54;100388.47;;;-15.06;64.12
69247;BME280;56358;56.328;43.992;2024-01-10T09:56:59;100398.03;;;-15.00;63.96
69247;BME280;56358;56.328;43.992;2024-01-10T09:59:01;100417.44;;;-14.78;64.36
69247;BME280;56358;56.328;43.992;2024-01-10T10:01:06;100420.13;;;-14.73;64.59
69247;BME280;56358;56.328;43.992;2024-01-10T10:03:07;100434.81;;;-14.69;64.17
69247;BME280;56358;56.328;43.992;2024-01-10T10:05:15;100428.06;;;-14.64;64.33
69247;BME280;56358;56.328;43.992;2024-01-10T10:07:16;100413.59;;;-14.57;64.52
69247;BME280;56358;56.328;43.992;2024-01-10T10:09:17;100432.53;;;-14.55;64.53
69247;BME280;56358;56.328;43.992;2024-01-10T10:11:18;100417.53;;;-14.35;64.39
69247;BME280;56358;56.328;43.992;2024-01-10T10:13:28;100424.47;;;-14.33;64.30
69247;BME280;56358;56.328;43.992;2024-01-10T10:15:30;100422.81;;;-14.29;64.33
69247;BME280;56358;56.328;43.992;2024-01-10T10:17:31;100426.97;;;-14.36;64.35